sensor_id;sensor_type;location;lat;lon;timestamp;pressure;altitude;pressure_sealevel;temperature;humidity
70684;BME280;58263;48.146;11.440;2024-02-16T00:00:43;95598.19;;;5.13;82.76
70684;BME280;58263;48.146;11.440;2024-02-16T00:03:09;95596.94;;;5.15;83.05
70684;BME280;58263;48.146;11.440;2024-02-16T00:05:34;95589.72;;;4.96;84.82
70684;BME280;58263;48.146;11.440;2024-02-16T00:08:00;95595.16;;;4.74;85.71
70684;BME280;58263;48.146;11.440;2024-02-16T00:10:28;95593.13;;;4.76;85.82
70684;BME280;58263;48.146;11.440;2024-02-16T00:12:53;95590.78;;;5.08;82.48
70684;BME280;58263;48.146;11.440;2024-02-16T00:15:18;95580.63;;;5.25;82.52
70684;BME280;58263;48.146;11.440;2024-02-16T00:17:43;95589.91;;;4.94;83.29
70684;BME280;58263;48.146;11.440;2024-02-16T00:20:09;95587.34;;;4.66;85.20
70684;BME280;58263;48.146;11.440;2024-02-16T00:22:37;95588.47;;;4.50;86.11
70684;BME280;58263;48.146;11.440;2024-02-16T00:25:02;95594.03;;;4.55;85.96
70684;BME280;58263;48.146;11.440;2024-02-16T00:27:28;95587.47;;;4.51;86.45
70684;BME280;58263;48.146;11.440;2024-02-16T00:29:53;95575.56;;;4.82;83.91
70684;BME280;58263;48.146;11.440;2024-02-16T00:32:19;95572.16;;;5.01;83.10
70684;BME280;58263;48.146;11.440;2024-02-16T00:34:44;95574.84;;;5.15;82.52
70684;BME280;58263;48.146;11.440;2024-02-16T00:37:10;95582.75;;;4.95;82.77
70684;BME280;58263;48.146;11.440;2024-02-16T00:39:37;95582.56;;;5.03;82.20
70684;BME280;58263;48.146;11.440;2024-02-16T00:42:05;95573.22;;;5.14;81.87
70684;BME280;58263;48.146;11.440;2024-02-16T00:44:30;95580.16;;;5.15;81.20
70684;BME280;58263;48.146;11.440;2024-02-16T00:46:56;95581.41;;;5.19;80.94
70684;BME280;58263;48.146;11.440;2024-02-16T00:49:21;95579.72;;;5.04;81.63
70684;BME280;58263;48.146;11.440;2024-02-16T00:51:47;95576.69;;;5.07;81.83
70684;BME280;58263;48.146;11.440;2024-02-16T00:54:13;95576.69;;;4.59;84.81
70684;BME280;58263;48.146;11.440;2024-02-16T00:56:38;95577.22;;;4.41;85.86
70684;BME280;58263;48.146;11.440;2024-02-16T00:59:04;95582.63;;;4.26;87.01
70684;BME280;58263;48.146;11.440;2024-02-16T01:01:29;95580.56;;;4.21;87.56
70684;BME280;58263;48.146;11.440;2024-02-16T01:03:54;95580.56;;;4.21;87.54
70684;BME280;58263;48.146;11.440;2024-02-16T01:06:20;95575.47;;;4.20;88.04
70684;BME280;58263;48.146;11.440;2024-02-16T01:08:46;95578.84;;;4.42;87.22
70684;BME280;58263;48.146;11.440;2024-02-16T01:11:12;95571.75;;;4.49;86.09
70684;BME280;58263;48.146;11.440;2024-02-16T01:13:39;95577.47;;;4.53;85.53
70684;BME280;58263;48.146;11.440;2024-02-16T01:16:04;95578.34;;;4.25;86.81
70684;BME280;58263;48.146;11.440;2024-02-16T01:18:30;95580.53;;;4.15;87.26
70684;BME280;58263;48.146;11.440;2024-02-16T01:20:55;95584.38;;;4.40;86.17
70684;BME280;58263;48.146;11.440;2024-02-16T01:23:21;95583.47;;;4.33;86.46
70684;BME280;58263;48.146;11.440;2024-02-16T01:25:46;95579.22;;;4.39;86.37
70684;BME280;58263;48.146;11.440;2024-02-16T01:28:12;95584.13;;;4.35;86.15
70684;BME280;58263;48.146;11.440;2024-02-16T01:30:40;95589.19;;;4.30;86.37
70684;BME280;58263;48.146;11.440;2024-02-16T01:33:06;95587.09;;;4.19;87.16
70684;BME280;58263;48.146;11.440;2024-02-16T01:35:32;95577.84;;;4.43;86.38
70684;BME280;58263;48.146;11.440;2024-02-16T01:37:58;95576.56;;;4.32;86.18
70684;BME280;58263;48.146;11.440;2024-02-16T01:40:23;95575.75;;;4.38;86.41
70684;BME280;58263;48.146;11.440;2024-02-16T01:42:51;95572.16;;;4.18;88.05
70684;BME280;58263;48.146;11.440;2024-02-16T01:45:16;95573.19;;;4.17;88.23
70684;BME280;58263;48.146;11.440;2024-02-16T01:47:43;95577.31;;;4.26;87.56
70684;BME280;58263;48.146;11.440;2024-02-16T01:50:09;95570.50;;;4.45;86.93
70684;BME280;58263;48.146;11.440;2024-02-16T01:52:35;95563.28;;;4.81;85.47
70684;BME280;58263;48.146;11.440;2024-02-16T01:55:03;95566.34;;;4.78;84.66
70684;BME280;58263;48.146;11.440;2024-02-16T01:57:30;95575.00;;;4.45;86.28
70684;BME280;58263;48.146;11.440;2024-02-16T01:59:56;95570.06;;;4.42;86.42
70684;BME280;58263;48.146;11.440;2024-02-16T02:02:21;95568.47;;;4.54;86.34
70684;BME280;58263;48.146;11.440;2024-02-16T02:04:46;95565.38;;;4.44;87.23
70684;BME280;58263;48.146;11.440;2024-02-16T02:07:15;95565.38;;;4.44;87.10
70684;BME280;58263;48.146;11.440;2024-02-16T02:09:41;95561.06;;;4.43;87.05
70684;BME280;58263;48.146;11.440;2024-02-16T02:12:08;95565.34;;;4.37;87.87
70684;BME280;58263;48.146;11.440;2024-02-16T02:14:34;95568.41;;;4.34;88.29
70684;BME280;58263;48.146;11.440;2024-02-16T02:16:59;95555.75;;;4.43;87.96
70684;BME280;58263;48.146;11.440;2024-02-16T02:19:25;95552.75;;;4.52;87.21
70684;BME280;58263;48.146;11.440;2024-02-16T02:21:51;95560.38;;;4.62;86.92
70684;BME280;58263;48.146;11.440;2024-02-16T02:24:16;95564.44;;;4.65;86.50
70684;BME280;58263;48.146;11.440;2024-02-16T02:26:41;95564.31;;;4.80;85.73
70684;BME280;58263;48.146;11.440;2024-02-16T02:29:07;95564.44;;;4.65;86.68
70684;BME280;58263;48.146;11.440;2024-02-16T02:31:32;95560.03;;;4.79;85.83
70684;BME280;58263;48.146;11.440;2024-02-16T02:33:57;95558.78;;;4.74;85.92
70684;BME280;58263;48.146;11.440;2024-02-16T02:36:24;95563.63;;;4.64;87.05
70684;BME280;58263;48.146;11.440;2024-02-16T02:38:49;95568.44;;;4.89;85.70
70684;BME280;58263;48.146;11.440;2024-02-16T02:41:16;95571.25;;;4.81;86.44
70684;BME280;58263;48.146;11.440;2024-02-16T02:43:42;95569.88;;;4.91;86.25
70684;BME280;58263;48.146;11.440;2024-02-16T02:46:07;95565.59;;;4.97;86.48
70684;BME280;58263;48.146;11.440;2024-02-16T02:48:33;95563.75;;;4.91;86.82
70684;BME280;58263;48.146;11.440;2024-02-16T02:50:58;95562.25;;;4.75;87.51
70684;BME280;58263;48.146;11.440;2024-02-16T02:53:27;95573.47;;;4.77;87.48
70684;BME280;58263;48.146;11.440;2024-02-16T02:55:53;95564.28;;;4.73;86.60
70684;BME280;58263;48.146;11.440;2024-02-16T02:58:18;95567.75;;;4.67;86.55
70684;BME280;58263;48.146;11.440;2024-02-16T03:00:44;95559.25;;;4.50;87.69
70684;BME280;58263;48.146;11.440;2024-02-16T03:03:09;95556.72;;;4.70;87.19
70684;BME280;58263;48.146;11.440;2024-02-16T03:05:34;95561.69;;;4.93;85.92
70684;BME280;58263;48.146;11.440;2024-02-16T03:08:00;95565.13;;;4.73;86.75
70684;BME280;58263;48.146;11.440;2024-02-16T03:10:26;95559.88;;;5.00;85.29
70684;BME280;58263;48.146;11.440;2024-02-16T03:12:52;95561.22;;;4.69;86.77
70684;BME280;58263;48.146;11.440;2024-02-16T03:15:17;95562.16;;;4.55;87.97
70684;BME280;58263;48.146;11.440;2024-02-16T03:17:43;95562.22;;;4.68;87.81
70684;BME280;58263;48.146;11.440;2024-02-16T03:20:09;95558.78;;;4.74;87.45
70684;BME280;58263;48.146;11.440;2024-02-16T03:22:34;95564.09;;;4.74;87.33
70684;BME280;58263;48.146;11.440;2024-02-16T03:24:59;95564.81;;;4.55;88.70
70684;BME280;58263;48.146;11.440;2024-02-16T03:27:25;95562.03;;;4.77;87.26
70684;BME280;58263;48.146;11.440;2024-02-16T03:29:50;95560.03;;;4.79;87.29
70684;BME280;58263;48.146;11.440;2024-02-16T03:32:15;95559.84;;;4.87;86.77
70684;BME280;58263;48.146;11.440;2024-02-16T03:34:40;95562.72;;;4.92;86.37
70684;BME280;58263;48.146;11.440;2024-02-16T03:37:05;95571.13;;;4.96;85.95
70684;BME280;58263;48.146;11.440;2024-02-16T03:39:31;95567.81;;;4.87;86.46
70684;BME280;58263;48.146;11.440;2024-02-16T03:41:56;95571.09;;;4.89;86.04
70684;BME280;58263;48.146;11.440;2024-02-16T03:44:21;95564.19;;;5.08;85.94
70684;BME280;58263;48.146;11.440;2024-02-16T03:46:47;95566.69;;;5.23;85.09
70684;BME280;58263;48.146;11.440;2024-02-16T03:49:12;95571.59;;;5.26;84.65
70684;BME280;58263;48.146;11.440;2024-02-16T03:51:37;95569.09;;;5.11;84.92
70684;BME280;58263;48.146;11.440;2024-02-16T03:54:03;95570.56;;;5.20;84.44
70684;BME280;58263;48.146;11.440;2024-02-16T03:56:29;95571.50;;;4.86;86.24
70684;BME280;58263;48.146;11.440;2024-02-16T03:58:55;95572.69;;;4.77;87.64
70684;BME280;58263;48.146;11.440;2024-02-16T04:01:20;95583.94;;;4.79;87.47
70684;BME280;58263;48.146;11.440;2024-02-16T04:03:45;95591.50;;;4.82;87.57
70684;BME280;58263;48.146;11.440;2024-02-16T04:06:10;95583.78;;;4.87;87.38
70684;BME280;58263;48.146;11.440;2024-02-16T04:08:36;95585.34;;;4.81;87.82
70684;BME280;58263;48.146;11.440;2024-02-16T04:11:01;95585.00;;;4.91;87.26
70684;BME280;58263;48.146;11.440;2024-02-16T04:13:28;95589.28;;;4.85;87.41
70684;BME280;58263;48.146;11.440;2024-02-16T04:15:53;95588.28;;;4.93;86.98
70684;BME280;58263;48.146;11.440;2024-02-16T04:18:18;95590.97;;;5.06;86.26
70684;BME280;58263;48.146;11.440;2024-02-16T04:20:44;95591.59;;;5.02;86.24
70684;BME280;58263;48.146;11.440;2024-02-16T04:23:09;95594.41;;;4.87;87.50
70684;BME280;58263;48.146;11.440;2024-02-16T04:25:34;95587.25;;;4.94;86.98
70684;BME280;58263;48.146;11.440;2024-02-16T04:27:59;95587.28;;;5.01;87.27
70684;BME280;58263;48.146;11.440;2024-02-16T04:30:25;95588.00;;;4.81;87.92
70684;BME280;58263;48.146;11.440;2024-02-16T04:32:50;95592.75;;;4.86;87.86
70684;BME280;58263;48.146;11.440;2024-02-16T04:35:15;95588.88;;;4.88;88.16
70684;BME280;58263;48.146;11.440;2024-02-16T04:37:41;95593.19;;;4.89;88.22
70684;BME280;58263;48.146;11.440;2024-02-16T04:40:07;95602.16;;;4.88;88.45
70684;BME280;58263;48.146;11.440;2024-02-16T04:42:33;95590.94;;;4.93;88.47
70684;BME280;58263;48.146;11.440;2024-02-16T04:44:58;95594.44;;;5.00;88.29
70684;BME280;58263;48.146;11.440;2024-02-16T04:47:26;95594.44;;;5.00;88.44
70684;BME280;58263;48.146;11.440;2024-02-16T04:49:52;95597.72;;;5.02;88.21
70684;BME280;58263;48.146;11.440;2024-02-16T04:52:17;95590.38;;;5.11;87.64
70684;BME280;58263;48.146;11.440;2024-02-16T04:54:42;95598.59;;;5.23;87.19
70684;BME280;58263;48.146;11.440;2024-02-16T04:57:07;95596.97;;;5.29;87.09
70684;BME280;58263;48.146;11.440;2024-02-16T04:59:33;95591.06;;;5.27;87.05
70684;BME280;58263;48.146;11.440;2024-02-16T05:01:58;95592.28;;;5.31;86.65
70684;BME280;58263;48.146;11.440;2024-02-16T05:04:23;95587.56;;;5.33;86.78
70684;BME280;58263;48.146;11.440;2024-02-16T05:06:49;95594.94;;;5.24;87.35
70684;BME280;58263;48.146;11.440;2024-02-16T05:09:16;95594.69;;;5.19;87.72
70684;BME280;58263;48.146;11.440;2024-02-16T05:11:45;95592.13;;;5.46;86.47
70684;BME280;58263;48.146;11.440;2024-02-16T05:14:11;95593.53;;;5.41;86.61
70684;BME280;58263;48.146;11.440;2024-02-16T05:16:37;95592.09;;;5.39;86.77
70684;BME280;58263;48.146;11.440;2024-02-16T05:19:02;95592.50;;;5.49;86.41
70684;BME280;58263;48.146;11.440;2024-02-16T05:21:28;95589.66;;;5.51;85.96
70684;BME280;58263;48.146;11.440;2024-02-16T05:23:53;95594.97;;;5.37;86.92
70684;BME280;58263;48.146;11.440;2024-02-16T05:26:19;95597.63;;;5.37;87.01
70684;BME280;58263;48.146;11.440;2024-02-16T05:28:45;95595.34;;;5.28;87.40
70684;BME280;58263;48.146;11.440;2024-02-16T05:31:16;95593.56;;;5.48;86.69
70684;BME280;58263;48.146;11.440;2024-02-16T05:33:45;95598.50;;;5.65;85.93
70684;BME280;58263;48.146;11.440;2024-02-16T05:36:11;95596.84;;;5.64;85.49
70684;BME280;58263;48.146;11.440;2024-02-16T05:38:37;95602.59;;;5.67;85.13
70684;BME280;58263;48.146;11.440;2024-02-16T05:41:07;95603.56;;;5.53;86.07
70684;BME280;58263;48.146;11.440;2024-02-16T05:43:33;95601.94;;;5.52;86.26
70684;BME280;58263;48.146;11.440;2024-02-16T05:45:58;95602.38;;;5.69;85.38
70684;BME280;58263;48.146;11.440;2024-02-16T05:48:24;95602.78;;;5.72;84.97
70684;BME280;58263;48.146;11.440;2024-02-16T05:50:51;95610.56;;;5.67;85.55
70684;BME280;58263;48.146;11.440;2024-02-16T05:53:17;95604.22;;;5.55;86.28
70684;BME280;58263;48.146;11.440;2024-02-16T05:55:44;95603.81;;;5.65;85.49
70684;BME280;58263;48.146;11.440;2024-02-16T05:58:09;95602.56;;;5.54;86.32
70684;BME280;58263;48.146;11.440;2024-02-16T06:00:35;95602.34;;;5.49;86.71
70684;BME280;58263;48.146;11.440;2024-02-16T06:03:00;95605.59;;;5.37;87.46
70684;BME280;58263;48.146;11.440;2024-02-16T06:05:26;95606.66;;;5.50;86.76
70684;BME280;58263;48.146;11.440;2024-02-16T06:07:52;95609.72;;;5.60;86.58
70684;BME280;58263;48.146;11.440;2024-02-16T06:10:18;95615.91;;;5.74;85.72
70684;BME280;58263;48.146;11.440;2024-02-16T06:12:43;95613.44;;;5.79;85.56
70684;BME280;58263;48.146;11.440;2024-02-16T06:15:08;95607.25;;;5.52;86.98
70684;BME280;58263;48.146;11.440;2024-02-16T06:17:34;95615.69;;;5.62;86.54
70684;BME280;58263;48.146;11.440;2024-02-16T06:19:59;95618.53;;;5.54;87.36
70684;BME280;58263;48.146;11.440;2024-02-16T06:22:25;95621.59;;;5.51;87.45
70684;BME280;58263;48.146;11.440;2024-02-16T06:24:50;95630.59;;;5.50;87.92
70684;BME280;58263;48.146;11.440;2024-02-16T06:27:16;95628.97;;;5.62;86.89
70684;BME280;58263;48.146;11.440;2024-02-16T06:29:41;95638.19;;;5.66;86.76
70684;BME280;58263;48.146;11.440;2024-02-16T06:32:07;95642.69;;;5.72;86.57
70684;BME280;58263;48.146;11.440;2024-02-16T06:34:32;95641.09;;;5.78;86.25
70684;BME280;58263;48.146;11.440;2024-02-16T06:36:58;95653.56;;;5.91;85.57
70684;BME280;58263;48.146;11.440;2024-02-16T06:39:23;95650.72;;;5.92;85.07
70684;BME280;58263;48.146;11.440;2024-02-16T06:41:48;95656.50;;;6.09;84.22
70684;BME280;58263;48.146;11.440;2024-02-16T06:44:15;95660.41;;;6.14;84.07
70684;BME280;58263;48.146;11.440;2024-02-16T06:46:41;95670.00;;;6.08;84.36
70684;BME280;58263;48.146;11.440;2024-02-16T06:49:07;95678.63;;;6.17;83.87
70684;BME280;58263;48.146;11.440;2024-02-16T06:51:32;95678.63;;;6.30;83.14
70684;BME280;58263;48.146;11.440;2024-02-16T06:53:57;95679.44;;;6.24;83.48
70684;BME280;58263;48.146;11.440;2024-02-16T06:56:23;95679.22;;;6.46;82.90
70684;BME280;58263;48.146;11.440;2024-02-16T06:58:49;95677.59;;;6.45;82.65
70684;BME280;58263;48.146;11.440;2024-02-16T07:01:14;95681.69;;;6.40;83.22
70684;BME280;58263;48.146;11.440;2024-02-16T07:03:40;95687.00;;;6.47;82.49
70684;BME280;58263;48.146;11.440;2024-02-16T07:06:06;95687.22;;;6.52;82.28
70684;BME280;58263;48.146;11.440;2024-02-16T07:08:36;95683.31;;;6.55;81.94
70684;BME280;58263;48.146;11.440;2024-02-16T07:11:01;95691.09;;;6.63;82.16
70684;BME280;58263;48.146;11.440;2024-02-16T07:13:28;95690.25;;;6.69;81.76
70684;BME280;58263;48.146;11.440;2024-02-16T07:15:53;95696.00;;;6.66;82.33
70684;BME280;58263;48.146;11.440;2024-02-16T07:18:19;95694.56;;;6.64;81.66
70684;BME280;58263;48.146;11.440;2024-02-16T07:20:46;95690.25;;;6.76;81.56
70684;BME280;58263;48.146;11.440;2024-02-16T07:23:12;95688.81;;;6.87;80.93
70684;BME280;58263;48.146;11.440;2024-02-16T07:25:38;95699.00;;;7.03;80.20
70684;BME280;58263;48.146;11.440;2024-02-16T07:28:03;95697.75;;;7.13;79.95
70684;BME280;58263;48.146;11.440;2024-02-16T07:30:28;95700.59;;;7.31;80.05
70684;BME280;58263;48.146;11.440;2024-02-16T07:32:54;95701.56;;;7.43;80.14
70684;BME280;58263;48.146;11.440;2024-02-16T07:35:19;95702.59;;;7.42;79.38
70684;BME280;58263;48.146;11.440;2024-02-16T07:37:46;95705.44;;;7.48;78.66
70684;BME280;58263;48.146;11.440;2024-02-16T07:40:11;95697.88;;;7.44;79.30
70684;BME280;58263;48.146;11.440;2024-02-16T07:42:38;95699.69;;;7.51;79.25
70684;BME280;58263;48.146;11.440;2024-02-16T07:45:04;95706.47;;;7.47;79.10
70684;BME280;58263;48.146;11.440;2024-02-16T07:47:31;95715.25;;;7.54;78.46
70684;BME280;58263;48.146;11.440;2024-02-16T07:49:57;95705.78;;;7.65;78.57
70684;BME280;58263;48.146;11.440;2024-02-16T07:52:22;95700.47;;;7.58;78.84
70684;BME280;58263;48.146;11.440;2024-02-16T07:54:47;95708.19;;;7.73;78.00
70684;BME280;58263;48.146;11.440;2024-02-16T07:57:14;95705.28;;;7.81;77.62
70684;BME280;58263;48.146;11.440;2024-02-16T07:59:40;95707.69;;;7.89;77.87
70684;BME280;58263;48.146;11.440;2024-02-16T08:02:05;95711.28;;;8.08;77.06
70684;BME280;58263;48.146;11.440;2024-02-16T08:04:32;95708.97;;;8.19;77.05
70684;BME280;58263;48.146;11.440;2024-02-16T08:06:57;95706.72;;;8.16;76.78
70684;BME280;58263;48.146;11.440;2024-02-16T08:09:23;95709.84;;;8.38;76.00
70684;BME280;58263;48.146;11.440;2024-02-16T08:11:48;95707.56;;;8.41;76.11
70684;BME280;58263;48.146;11.440;2024-02-16T08:14:13;95716.00;;;8.38;75.69
70684;BME280;58263;48.146;11.440;2024-02-16T08:16:38;95717.00;;;8.44;75.31
70684;BME280;58263;48.146;11.440;2024-02-16T08:19:04;95717.47;;;8.66;74.79
70684;BME280;58263;48.146;11.440;2024-02-16T08:21:29;95719.69;;;8.69;74.68
70684;BME280;58263;48.146;11.440;2024-02-16T08:23:54;95719.03;;;8.74;74.20
70684;BME280;58263;48.146;11.440;2024-02-16T08:26:20;95720.34;;;8.90;73.77
70684;BME280;58263;48.146;11.440;2024-02-16T08:28:46;95713.59;;;9.06;73.19
70684;BME280;58263;48.146;11.440;2024-02-16T08:31:15;95717.84;;;9.13;73.01
70684;BME280;58263;48.146;11.440;2024-02-16T08:33:43;95713.25;;;9.21;71.85
70684;BME280;58263;48.146;11.440;2024-02-16T08:36:08;95716.97;;;9.38;71.70
70684;BME280;58263;48.146;11.440;2024-02-16T08:38:33;95723.78;;;9.53;70.36
70684;BME280;58263;48.146;11.440;2024-02-16T08:40:58;95717.69;;;9.64;70.50
70684;BME280;58263;48.146;11.440;2024-02-16T08:43:25;95720.72;;;9.68;69.34
70684;BME280;58263;48.146;11.440;2024-02-16T08:45:50;95718.59;;;9.88;69.04
70684;BME280;58263;48.146;11.440;2024-02-16T08:48:16;95714.31;;;9.87;68.30
70684;BME280;58263;48.146;11.440;2024-02-16T08:50:41;95718.66;;;10.00;67.36
70684;BME280;58263;48.146;11.440;2024-02-16T08:53:06;95712.00;;;10.21;66.92
70684;BME280;58263;48.146;11.440;2024-02-16T08:55:32;95712.09;;;10.14;66.21
70684;BME280;58263;48.146;11.440;2024-02-16T08:57:58;95715.16;;;10.30;66.42
70684;BME280;58263;48.146;11.440;2024-02-16T09:00:23;95721.69;;;10.34;65.50
70684;BME280;58263;48.146;11.440;2024-02-16T09:02:51;95719.75;;;10.41;65.41
70684;BME280;58263;48.146;11.440;2024-02-16T09:05:17;95717.78;;;10.48;65.27
70684;BME280;58263;48.146;11.440;2024-02-16T09:07:42;95719.66;;;10.60;64.43
70684;BME280;58263;48.146;11.440;2024-02-16T09:10:07;95720.72;;;10.59;63.87
70684;BME280;58263;48.146;11.440;2024-02-16T09:12:33;95729.59;;;10.71;63.09
70684;BME280;58263;48.146;11.440;2024-02-16T09:14:58;95726.69;;;11.08;63.00
70684;BME280;58263;48.146;11.440;2024-02-16T09:17:24;95731.47;;;11.30;61.88
70684;BME280;58263;48.146;11.440;2024-02-16T09:19:49;95724.00;;;11.44;60.86
70684;BME280;58263;48.146;11.440;2024-02-16T09:22:14;95724.81;;;11.44;60.20
70684;BME280;58263;48.146;11.440;2024-02-16T09:24:39;95729.16;;;11.74;59.36
70684;BME280;58263;48.146;11.440;2024-02-16T09:27:06;95730.34;;;11.66;59.05
70684;BME280;58263;48.146;11.440;2024-02-16T09:29:32;95725.72;;;12.03;58.51
70684;BME280;58263;48.146;11.440;2024-02-16T09:31:58;95724.22;;;11.95;58.48
70684;BME280;58263;48.146;11.440;2024-02-16T09:34:23;95722.50;;;11.77;58.54
70684;BME280;58263;48.146;11.440;2024-02-16T09:36:48;95721.53;;;11.83;58.37
70684;BME280;58263;48.146;11.440;2024-02-16T09:39:14;95722.25;;;11.78;58.71
70684;BME280;58263;48.146;11.440;2024-02-16T09:41:42;95722.56;;;11.94;59.20
70684;BME280;58263;48.146;11.440;2024-02-16T09:44:08;95727.16;;;11.81;58.11
70684;BME280;58263;48.146;11.440;2024-02-16T09:46:35;95735.88;;;11.89;58.54
70684;BME280;58263;48.146;11.440;2024-02-16T09:49:04;95723.84;;;12.03;58.14
70684;BME280;58263;48.146;11.440;2024-02-16T09:51:29;95721.63;;;12.00;56.97
70684;BME280;58263;48.146;11.440;2024-02-16T09:53:55;95718.31;;;12.10;56.51
70684;BME280;58263;48.146;11.440;2024-02-16T09:56:21;95717.94;;;12.35;56.15
70684;BME280;58263;48.146;11.440;2024-02-16T09:58:47;95725.31;;;12.57;55.51
70684;BME280;58263;48.146;11.440;2024-02-16T10:01:19;95721.34;;;12.76;56.06
70684;BME280;58263;48.146;11.440;2024-02-16T10:03:45;95713.59;;;12.97;54.42
70684;BME280;58263;48.146;11.440;2024-02-16T10:06:11;95718.63;;;13.10;52.74
70684;BME280;58263;48.146;11.440;2024-02-16T10:08:53;95709.94;;;13.42;52.59
70684;BME280;58263;48.146;11.440;2024-02-16T10:11:21;95718.84;;;13.65;51.80
70684;BME280;58263;48.146;11.440;2024-02-16T10:13:57;95712.84;;;13.80;50.45
70684;BME280;58263;48.146;11.440;2024-02-16T10:16:23;95714.28;;;14.15;51.01
70684;BME280;58263;48.146;11.440;2024-02-16T10:18:48;95713.94;;;14.33;48.13
70684;BME280;58263;48.146;11.440;2024-02-16T10:21:24;95712.97;;;14.72;47.38
70684;BME280;58263;48.146;11.440;2024-02-16T10:24:07;95710.69;;;14.91;45.25
70684;BME280;58263;48.146;11.440;2024-02-16T10:26:34;95717.69;;;15.25;47.59
70684;BME280;58263;48.146;11.440;2024-02-16T10:29:03;95721.84;;;15.00;45.51
70684;BME280;58263;48.146;11.440;2024-02-16T10:31:30;95719.16;;;15.05;45.41
70684;BME280;58263;48.146;11.440;2024-02-16T10:34:03;95721.41;;;15.18;44.15
70684;BME280;58263;48.146;11.440;2024-02-16T10:36:36;95722.69;;;15.53;43.61
70684;BME280;58263;48.146;11.440;2024-02-16T10:39:03;95716.72;;;15.99;42.71
70684;BME280;58263;48.146;11.440;2024-02-16T10:41:40;95713.16;;;17.84;42.36
70684;BME280;58263;48.146;11.440;2024-02-16T10:44:06;95715.41;;;19.12;38.86
70684;BME280;58263;48.146;11.440;2024-02-16T10:46:32;95709.63;;;19.96;36.44
70684;BME280;58263;48.146;11.440;2024-02-16T10:48:58;95709.28;;;19.25;36.02
70684;BME280;58263;48.146;11.440;2024-02-16T10:51:52;95716.91;;;19.23;37.09
70684;BME280;58263;48.146;11.440;2024-02-16T10:54:23;95703.00;;;21.31;34.29
70684;BME280;58263;48.146;11.440;2024-02-16T10:56:53;95713.84;;;21.50;33.58
70684;BME280;58263;48.146;11.440;2024-02-16T10:59:18;95714.88;;;20.74;34.27
70684;BME280;58263;48.146;11.440;2024-02-16T11:01:44;95704.16;;;21.43;33.40
70684;BME280;58263;48.146;11.440;2024-02-16T11:04:17;95707.56;;;22.47;32.10
70684;BME280;58263;48.146;11.440;2024-02-16T11:06:52;95704.47;;;22.76;31.44
70684;BME280;58263;48.146;11.440;2024-02-16T11:09:29;95704.63;;;23.88;29.52
70684;BME280;58263;48.146;11.440;2024-02-16T11:11:58;95701.50;;;24.12;28.57
70684;BME280;58263;48.146;11.440;2024-02-16T11:14:34;95696.13;;;24.82;27.68
70684;BME280;58263;48.146;11.440;2024-02-16T11:16:59;95691.00;;;25.54;26.80
70684;BME280;58263;48.146;11.440;2024-02-16T11:19:24;95687.44;;;26.52;26.93
70684;BME280;58263;48.146;11.440;2024-02-16T11:22:03;95686.56;;;27.03;25.83
70684;BME280;58263;48.146;11.440;2024-02-16T11:24:46;95681.66;;;27.42;25.60
70684;BME280;58263;48.146;11.440;2024-02-16T11:27:12;95688.06;;;28.82;27.08
70684;BME280;58263;48.146;11.440;2024-02-16T11:29:38;95677.88;;;28.58;24.02
70684;BME280;58263;48.146;11.440;2024-02-16T11:32:06;95682.06;;;29.21;23.29
70684;BME280;58263;48.146;11.440;2024-02-16T11:34:33;95682.81;;;29.33;24.47
70684;BME280;58263;48.146;11.440;2024-02-16T11:37:00;95676.13;;;28.78;24.10
70684;BME280;58263;48.146;11.440;2024-02-16T11:39:26;95671.16;;;26.89;25.66
70684;BME280;58263;48.146;11.440;2024-02-16T11:42:09;95677.59;;;26.72;26.13
70684;BME280;58263;48.146;11.440;2024-02-16T11:44:36;95675.69;;;25.83;27.79
70684;BME280;58263;48.146;11.440;2024-02-16T11:47:02;95669.31;;;27.73;25.60
70684;BME280;58263;48.146;11.440;2024-02-16T11:49:29;95671.13;;;28.55;24.31
70684;BME280;58263;48.146;11.440;2024-02-16T11:51:54;95673.22;;;29.27;23.38
70684;BME280;58263;48.146;11.440;2024-02-16T11:54:20;95676.69;;;28.06;24.36
70684;BME280;58263;48.146;11.440;2024-02-16T11:56:46;95676.22;;;28.28;24.15
70684;BME280;58263;48.146;11.440;2024-02-16T11:59:16;95670.91;;;27.49;25.01
70684;BME280;58263;48.146;11.440;2024-02-16T12:01:56;95674.19;;;26.24;26.45
70684;BME280;58263;48.146;11.440;2024-02-16T12:04:22;95671.69;;;26.61;26.42
70684;BME280;58263;48.146;11.440;2024-02-16T12:06:47;95662.88;;;27.81;25.24
70684;BME280;58263;48.146;11.440;2024-02-16T12:09:16;95665.50;;;27.53;25.65
70684;BME280;58263;48.146;11.440;2024-02-16T12:11:41;95674.63;;;26.35;26.88
70684;BME280;58263;48.146;11.440;2024-02-16T12:14:07;95673.34;;;24.90;28.73
70684;BME280;58263;48.146;11.440;2024-02-16T12:16:32;95677.03;;;24.51;28.57
70684;BME280;58263;48.146;11.440;2024-02-16T12:19:07;95680.03;;;23.65;29.51
70684;BME280;58263;48.146;11.440;2024-02-16T12:21:33;95685.84;;;24.04;30.00
70684;BME280;58263;48.146;11.440;2024-02-16T12:23:58;95690.69;;;22.67;31.90
70684;BME280;58263;48.146;11.440;2024-02-16T12:26:24;95678.31;;;23.38;30.89
70684;BME280;58263;48.146;11.440;2024-02-16T12:28:49;95686.88;;;23.45;31.30
70684;BME280;58263;48.146;11.440;2024-02-16T12:31:19;95683.34;;;25.04;29.07
70684;BME280;58263;48.146;11.440;2024-02-16T12:33:44;95677.44;;;26.69;26.57
70684;BME280;58263;48.146;11.440;2024-02-16T12:36:09;95677.97;;;27.04;26.43
70684;BME280;58263;48.146;11.440;2024-02-16T12:38:35;95675.88;;;27.35;26.71
70684;BME280;58263;48.146;11.440;2024-02-16T12:41:00;95673.34;;;28.12;26.04
70684;BME280;58263;48.146;11.440;2024-02-16T12:43:25;95674.88;;;26.21;28.85
70684;BME280;58263;48.146;11.440;2024-02-16T12:45:50;95684.25;;;26.20;26.32
70684;BME280;58263;48.146;11.440;2024-02-16T12:48:16;95679.78;;;27.00;25.95
70684;BME280;58263;48.146;11.440;2024-02-16T12:50:41;95680.28;;;26.09;26.45
70684;BME280;58263;48.146;11.440;2024-02-16T12:53:07;95681.53;;;27.05;25.31